G.m. Penman — CFN7245 — position and weather

sailwx.info

Track history (hours):
 
Tides and Currents Weather Stations Pressure Air Temp Water Temp Dewpoint Dewpoint Depression Visibility Wind Speed Wind Dir Waves Ship Positions

G.m. Penman

Last reported at 2018-Jun-20 19:32 UTC. Time now 2018-Jun-20 23:00 UTC.
Position N 48°39' W 123°32'.

Length 20 m; draft 2 m.

Type: Pollution control. MMSI: 316030416.

Date/timePositionNaut miles runAvg speedWind from/ knotsBaromVisibWave heightAir tempDewpointWater temp
2018-Jun-20 19:32N 48°39' W 123°32'1 7.9
2018-Jun-20 19:29N 48°39' W 123°32'4 7.0
2018-Jun-20 18:58N 48°42' W 123°29'4 8.6
2018-Jun-20 18:30N 48°44' W 123°24'1 1.3
2018-Jun-20 17:54N 48°45' W 123°23'4 9.8
2018-Jun-20 17:30N 48°43' W 123°28'5 9.6
2018-Jun-20 17:00N 48°39' W 123°32'0 0.0
2018-Jun-19 20:09N 48°39' W 123°33'0 0.0
2018-Jun-19 20:00N 48°39' W 123°33'612.3
2018-Jun-19 19:30N 48°43' W 123°26'5 9.6
2018-Jun-19 19:00N 48°39' W 123°21'5 9.3
2018-Jun-19 18:30N 48°35' W 123°19'4 8.2
2018-Jun-19 18:00N 48°31' W 123°16'4 7.9
2018-Jun-19 17:30N 48°27' W 123°15'  
2018-Jun-13 18:56N 48°22' W 123°56'716.9
2018-Jun-13 18:31N 48°23' W 124°07'714.5
2018-Jun-13 18:00N 48°26' W 124°17'612.2
2018-Jun-13 17:30N 48°28' W 124°26'611.9
2018-Jun-13 17:00N 48°30' W 124°34'713.2
2018-Jun-13 16:30N 48°33' W 124°43'815.6
2018-Jun-13 16:01N 48°37' W 124°53'815.7
2018-Jun-13 15:30N 48°40' W 125°05'815.3
2018-Jun-13 15:00N 48°45' W 125°13'6 0.3
2018-Jun-12 22:01N 48°50' W 125°09'218.9
2018-Jun-12 21:56N 48°49' W 125°11'613.8
2018-Jun-12 21:30N 48°44' W 125°09'816.9
2018-Jun-12 21:00N 48°41' W 124°57'611.9
2018-Jun-12 20:31N 48°38' W 124°49'815.8
2018-Jun-12 20:01N 48°34' W 124°39'917.1
2018-Jun-12 19:30N 48°33' W 124°26'1 1.6
2018-Jun-12 19:00N 48°33' W 124°25'3 5.9
2018-Jun-12 18:30N 48°32' W 124°28'816.3
2018-Jun-12 18:00N 48°28' W 124°17'815.1
2018-Jun-12 17:30N 48°26' W 124°07'30 6.7
2018-Jun-12 13:08N 48°25' W 123°22'0 0.0
2018-Jun-12 12:38N 48°25' W 123°22'0 0.0
2018-Jun-12 12:26N 48°26' W 123°22'0 0.0
2018-Jun-12 11:50N 48°25' W 123°22'0 0.0
2018-Jun-12 11:26N 48°25' W 123°22'0 0.0
2018-Jun-12 09:02N 48°26' W 123°22'0 0.0
2018-Jun-12 08:38N 48°25' W 123°22'0 0.0
2018-Jun-12 08:14N 48°26' W 123°22'  
Track history (hours):
 
Tides and Currents Weather Stations Pressure Air Temp Water Temp Dewpoint Dewpoint Depression Visibility Wind Speed Wind Dir Waves Ship Positions

G.m. Penman

Last reported at 2018-Jun-20 19:32 UTC. Time now 2018-Jun-20 23:00 UTC.
Position N 48°39' W 123°32'.

Length 20 m; draft 2 m.

Type: Pollution control. MMSI: 316030416.

Date/timePositionNaut miles runAvg speedWind from/ knotsBaromVisibWave heightAir tempDewpointWater temp
2018-Jun-20 19:32N 48°39' W 123°32'1 7.9
2018-Jun-20 19:29N 48°39' W 123°32'4 7.0
2018-Jun-20 18:58N 48°42' W 123°29'4 8.6
2018-Jun-20 18:30N 48°44' W 123°24'1 1.3
2018-Jun-20 17:54N 48°45' W 123°23'4 9.8
2018-Jun-20 17:30N 48°43' W 123°28'5 9.6
2018-Jun-20 17:00N 48°39' W 123°32'0 0.0
2018-Jun-19 20:09N 48°39' W 123°33'0 0.0
2018-Jun-19 20:00N 48°39' W 123°33'612.3
2018-Jun-19 19:30N 48°43' W 123°26'5 9.6
2018-Jun-19 19:00N 48°39' W 123°21'5 9.3
2018-Jun-19 18:30N 48°35' W 123°19'4 8.2
2018-Jun-19 18:00N 48°31' W 123°16'4 7.9
2018-Jun-19 17:30N 48°27' W 123°15'  
2018-Jun-13 18:56N 48°22' W 123°56'716.9
2018-Jun-13 18:31N 48°23' W 124°07'714.5
2018-Jun-13 18:00N 48°26' W 124°17'612.2
2018-Jun-13 17:30N 48°28' W 124°26'611.9
2018-Jun-13 17:00N 48°30' W 124°34'713.2
2018-Jun-13 16:30N 48°33' W 124°43'815.6
2018-Jun-13 16:01N 48°37' W 124°53'815.7
2018-Jun-13 15:30N 48°40' W 125°05'815.3
2018-Jun-13 15:00N 48°45' W 125°13'6 0.3
2018-Jun-12 22:01N 48°50' W 125°09'218.9
2018-Jun-12 21:56N 48°49' W 125°11'613.8
2018-Jun-12 21:30N 48°44' W 125°09'816.9
2018-Jun-12 21:00N 48°41' W 124°57'611.9
2018-Jun-12 20:31N 48°38' W 124°49'815.8
2018-Jun-12 20:01N 48°34' W 124°39'917.1
2018-Jun-12 19:30N 48°33' W 124°26'1 1.6
2018-Jun-12 19:00N 48°33' W 124°25'3 5.9
2018-Jun-12 18:30N 48°32' W 124°28'816.3
2018-Jun-12 18:00N 48°28' W 124°17'815.1
2018-Jun-12 17:30N 48°26' W 124°07'30 6.7
2018-Jun-12 13:08N 48°25' W 123°22'0 0.0
2018-Jun-12 12:38N 48°25' W 123°22'0 0.0
2018-Jun-12 12:26N 48°26' W 123°22'0 0.0
2018-Jun-12 11:50N 48°25' W 123°22'0 0.0
2018-Jun-12 11:26N 48°25' W 123°22'0 0.0
2018-Jun-12 09:02N 48°26' W 123°22'0 0.0
2018-Jun-12 08:38N 48°25' W 123°22'0 0.0
2018-Jun-12 08:14N 48°26' W 123°22'  

Dump ship's entire track history